Time;durP1;ratioP1;P1;durP2;ratioP2;P2;SDS_P1;SDS_P2;PMS_P1;PMS_P2;Temp;Humidity;BMP_temperature;BMP_pressure;BME280_temperature;BME280_humidity;BME280_pressure;Samples;Min_cycle;Max_cycle;Signal;HPM_P1;HPM_P2
2023/05/06 08:06:39;;;;;;;20.90;14.02;;;;;;;14.26;100.00;101480.97;5069436;28;20587;-73
2023/05/06 08:09:04;;;;;;;21.23;13.82;;;;;;;14.46;100.00;101480.69;5060596;28;20029;-69
2023/05/06 08:11:30;;;;;;;20.52;13.73;;;;;;;14.53;100.00;101488.72;5068386;28;20476;-71
2023/05/06 08:13:55;;;;;;;18.73;12.25;;;;;;;14.58;100.00;101497.00;5069796;28;20044;-72
2023/05/06 08:16:20;;;;;;;20.05;12.57;;;;;;;14.60;100.00;101489.44;5067985;28;20025;-72
2023/05/06 08:18:46;;;;;;;17.63;12.07;;;;;;;14.61;100.00;101499.28;5068121;28;20025;-70
2023/05/06 08:21:11;;;;;;;18.88;11.75;;;;;;;14.69;100.00;101496.22;5068394;28;20039;-73
2023/05/06 08:23:36;;;;;;;15.23;10.40;;;;;;;14.70;100.00;101488.88;5069171;28;20543;-71
2023/05/06 08:26:02;;;;;;;23.15;11.70;;;;;;;14.74;100.00;101489.25;5066161;28;20081;-74
2023/05/06 08:28:28;;;;;;;19.75;11.65;;;;;;;14.80;100.00;101483.66;5068172;28;20103;-71
2023/05/06 08:30:56;;;;;;;16.00;9.90;;;;;;;14.89;100.00;101489.59;5069280;28;20476;-76
2023/05/06 08:33:22;;;;;;;16.50;10.13;;;;;;;14.91;100.00;101484.72;5068052;28;20021;-74
2023/05/06 08:35:48;;;;;;;17.88;10.30;;;;;;;14.96;100.00;101484.00;5069559;28;20122;-76
2023/05/06 08:38:13;;;;;;;15.88;8.35;;;;;;;15.07;100.00;101483.97;5069409;28;20028;-74
2023/05/06 08:40:43;;;;;;;13.35;7.93;;;;;;;15.14;100.00;101488.47;5068833;28;20021;-78
2023/05/06 08:43:25;;;;;;;14.70;8.98;;;;;;;15.18;100.00;101489.66;5053118;28;20037;-78
2023/05/06 08:45:50;;;;;;;14.85;8.75;;;;;;;15.18;100.00;101484.22;5054938;28;20525;-71
2023/05/06 08:48:16;;;;;;;9.77;6.63;;;;;;;15.22;100.00;101486.22;5057609;28;20025;-72
2023/05/06 08:50:42;;;;;;;12.65;6.70;;;;;;;15.30;100.00;101484.19;5068622;28;20037;-77
2023/05/06 08:53:15;;;;;;;10.93;5.95;;;;;;;15.36;100.00;101475.84;5056270;28;20025;-73
2023/05/06 08:55:42;;;;;;;10.70;6.57;;;;;;;15.43;100.00;101475.72;5057780;28;20037;-74
2023/05/06 08:58:10;;;;;;;12.27;6.85;;;;;;;15.39;100.00;101478.09;5068709;28;20025;-71
2023/05/06 09:00:36;;;;;;;10.48;6.25;;;;;;;15.57;100.00;101476.28;5066610;28;20032;-74
2023/05/06 09:03:01;;;;;;;10.30;6.28;;;;;;;15.59;100.00;101476.84;5067590;28;20428;-76
2023/05/06 09:05:27;;;;;;;9.40;5.60;;;;;;;15.69;100.00;101474.31;5066735;28;20049;-77
2023/05/06 09:07:53;;;;;;;10.40;4.72;;;;;;;15.87;100.00;101472.50;5068737;28;20025;-71
2023/05/06 09:10:18;;;;;;;8.60;5.00;;;;;;;15.83;100.00;101468.59;5051968;28;20033;-73
2023/05/06 09:12:43;;;;;;;7.63;4.80;;;;;;;15.91;100.00;101473.63;5066642;28;20050;-76
2023/05/06 09:15:09;;;;;;;7.32;4.60;;;;;;;15.93;100.00;101466.06;5065729;28;20025;-70
2023/05/06 09:17:35;;;;;;;8.02;5.53;;;;;;;15.92;100.00;101470.66;5037551;28;20108;-75
2023/05/06 09:20:00;;;;;;;7.30;4.32;;;;;;;16.03;100.00;101468.13;5047316;28;20035;-76
2023/05/06 09:22:30;;;;;;;9.40;4.95;;;;;;;16.02;100.00;101470.03;5032783;28;20041;-78
2023/05/06 09:24:57;;;;;;;5.55;4.00;;;;;;;16.07;100.00;101474.75;5035100;28;20022;-70
2023/05/06 09:27:27;;;;;;;7.65;4.43;;;;;;;16.11;100.00;101470.47;5039811;28;20029;-72
2023/05/06 09:30:00;;;;;;;10.45;4.90;;;;;;;16.21;100.00;101475.25;5038930;28;20135;-74
2023/05/06 09:32:26;;;;;;;8.43;4.80;;;;;;;16.25;100.00;101471.78;5053765;28;20108;-76
2023/05/06 09:34:52;;;;;;;6.10;4.32;;;;;;;16.28;100.00;101470.47;5053296;28;20515;-73
2023/05/06 09:37:19;;;;;;;8.30;4.60;;;;;;;16.32;100.00;101465.31;5055004;28;20028;-76
2023/05/06 09:39:45;;;;;;;6.95;4.20;;;;;;;16.39;100.00;101466.00;5053439;28;20396;-73
2023/05/06 09:42:10;;;;;;;8.52;4.13;;;;;;;16.52;100.00;101462.91;5048660;28;20060;-77
2023/05/06 09:44:36;;;;;;;5.30;3.67;;;;;;;16.62;100.00;101464.97;5048132;28;20439;-73
2023/05/06 09:47:09;;;;;;;5.22;2.92;;;;;;;16.64;100.00;101460.91;5045200;28;20044;-78
2023/05/06 09:49:34;;;;;;;5.72;2.55;;;;;;;16.82;100.00;101451.59;5034641;28;20075;-73
2023/05/06 09:52:00;;;;;;;8.85;2.80;;;;;;;16.98;100.00;101446.38;5036073;28;20041;-76
2023/05/06 09:54:26;;;;;;;4.93;2.30;;;;;;;16.98;97.81;101457.31;5054403;28;20029;-73
2023/05/06 09:56:54;;;;;;;4.97;2.72;;;;;;;17.09;100.00;101458.25;5054596;28;20029;-74
2023/05/06 09:59:20;;;;;;;5.47;3.05;;;;;;;17.26;100.00;101459.03;5044054;28;20114;-70
2023/05/06 10:01:46;;;;;;;6.18;2.53;;;;;;;17.33;93.80;101450.63;5030725;28;20064;-72
2023/05/06 10:04:12;;;;;;;4.82;2.22;;;;;;;17.33;97.95;101443.25;5034531;28;20064;-74
2023/05/06 10:06:40;;;;;;;6.03;2.70;;;;;;;17.48;100.00;101447.22;5033921;28;20115;-73
2023/05/06 10:09:07;;;;;;;3.90;2.10;;;;;;;17.48;94.75;101444.50;5034719;28;20037;-76
2023/05/06 10:11:34;;;;;;;4.15;1.40;;;;;;;17.59;83.94;101450.91;5032876;28;20494;-69
2023/05/06 10:14:01;;;;;;;4.15;1.38;;;;;;;17.70;79.79;101453.50;5032997;28;20037;-72
2023/05/06 10:16:27;;;;;;;3.92;1.70;;;;;;;17.65;74.60;101444.44;5040860;28;20025;-71
2023/05/06 10:18:54;;;;;;;4.30;2.08;;;;;;;17.72;79.96;101453.22;5052047;28;20025;-73
2023/05/06 10:21:23;;;;;;;5.47;1.73;;;;;;;17.61;74.06;101449.56;5047471;28;20032;-71
2023/05/06 10:24:10;;;;;;;3.70;1.90;;;;;;;17.69;84.32;101440.06;5053550;28;20048;-73
2023/05/06 10:26:37;;;;;;;3.88;1.50;;;;;;;17.78;81.83;101437.69;5052466;28;20110;-74
2023/05/06 10:29:08;;;;;;;3.33;1.50;;;;;;;17.79;86.56;101437.44;5052615;28;20045;-75
2023/05/06 10:31:34;;;;;;;6.70;1.65;;;;;;;17.79;79.17;101434.69;5044846;28;20041;-73
2023/05/06 10:34:03;;;;;;;2.75;1.50;;;;;;;17.84;84.96;101442.94;5047708;28;20029;-74
2023/05/06 10:36:32;;;;;;;3.30;1.73;;;;;;;17.89;81.96;101439.50;5036731;28;20038;-72
2023/05/06 10:39:06;;;;;;;3.45;1.75;;;;;;;18.01;78.30;101433.81;5033226;28;20037;-75
2023/05/06 10:41:44;;;;;;;4.75;1.88;;;;;;;18.12;78.57;101435.56;5042274;28;20032;-79
2023/05/06 10:44:09;;;;;;;4.85;2.10;;;;;;;18.14;74.95;101435.31;5039764;28;20029;-75
2023/05/06 10:46:56;;;;;;;3.17;1.70;;;;;;;18.21;81.37;101427.69;5043510;28;20021;-74
2023/05/06 10:49:21;;;;;;;4.93;1.70;;;;;;;18.12;71.39;101432.81;5032415;28;20044;-76
2023/05/06 10:51:47;;;;;;;2.90;1.60;;;;;;;18.17;72.11;101430.13;5033275;28;20041;-74
2023/05/06 10:54:19;;;;;;;2.72;1.48;;;;;;;18.20;74.78;101426.84;5031964;28;20037;-72
2023/05/06 10:56:48;;;;;;;6.65;1.90;;;;;;;18.21;73.64;101419.47;5032880;28;20087;-74
2023/05/06 10:59:14;;;;;;;3.63;1.77;;;;;;;18.22;73.32;101424.69;5032764;28;20079;-73
2023/05/06 11:01:42;;;;;;;8.48;2.13;;;;;;;18.28;72.42;101430.19;5036754;28;20032;-75
2023/05/06 11:04:11;;;;;;;2.92;1.83;;;;;;;18.29;72.17;101427.19;5051721;28;20056;-73
2023/05/06 11:06:46;;;;;;;5.05;2.25;;;;;;;18.27;74.35;101417.59;5052389;28;20048;-74
2023/05/06 11:09:18;;;;;;;4.57;1.92;;;;;;;18.32;74.46;101410.22;5049471;28;20040;-74
2023/05/06 11:11:47;;;;;;;4.43;1.90;;;;;;;18.46;76.77;101426.22;5052294;28;20029;-72
2023/05/06 11:14:14;;;;;;;3.15;1.90;;;;;;;18.54;78.12;101414.75;5044293;28;20029;-73
2023/05/06 11:16:47;;;;;;;3.55;1.67;;;;;;;18.69;74.72;101419.50;5046637;28;20029;-75
2023/05/06 11:19:27;;;;;;;2.50;1.60;;;;;;;18.71;79.20;101412.66;5048161;28;20028;-72
2023/05/06 11:21:54;;;;;;;3.92;1.90;;;;;;;18.74;78.57;101412.13;5034041;28;20037;-72
2023/05/06 11:24:24;;;;;;;4.25;2.22;;;;;;;18.68;71.18;101415.13;5037966;28;20029;-72
2023/05/06 11:26:50;;;;;;;2.75;1.60;;;;;;;18.62;70.65;101410.72;5052645;28;20122;-73
2023/05/06 11:29:17;;;;;;;3.85;1.98;;;;;;;18.67;71.64;101411.53;5052409;28;20080;-73
2023/05/06 11:31:44;;;;;;;4.25;1.70;;;;;;;18.69;75.30;101408.53;5052664;28;20033;-74
2023/05/06 11:34:19;;;;;;;4.22;2.00;;;;;;;18.59;69.92;101401.91;5052675;28;20032;-73
2023/05/06 11:37:10;;;;;;;5.13;1.92;;;;;;;18.66;77.18;101396.19;5052184;28;20025;-74
2023/05/06 11:39:38;;;;;;;2.95;1.40;;;;;;;18.61;69.98;101401.63;5044428;28;20102;-74
2023/05/06 11:42:05;;;;;;;5.43;1.63;;;;;;;18.69;68.86;101403.03;5052379;28;20484;-74
2023/05/06 11:44:36;;;;;;;3.20;1.40;;;;;;;18.69;68.43;101409.38;5048923;28;20370;-72
2023/05/06 11:47:08;;;;;;;4.95;1.30;;;;;;;18.73;67.53;101410.47;5052396;28;20469;-73
2023/05/06 11:49:40;;;;;;;1.90;1.02;;;;;;;18.88;69.32;101406.19;5052494;28;20119;-73
2023/05/06 11:52:07;;;;;;;2.75;1.30;;;;;;;18.95;69.98;101406.78;5052638;28;20040;-73
2023/05/06 11:54:34;;;;;;;4.53;1.50;;;;;;;18.93;72.12;101406.22;5044190;28;20033;-72
2023/05/06 11:57:00;;;;;;;2.97;1.33;;;;;;;18.88;68.54;101404.28;5032342;28;20100;-71
2023/05/06 11:59:38;;;;;;;3.00;1.33;;;;;;;18.80;66.08;101404.75;5048457;28;20469;-71
2023/05/06 12:02:09;;;;;;;4.57;1.20;;;;;;;18.77;67.27;101399.81;5048708;28;20060;-72
2023/05/06 12:04:42;;;;;;;2.83;1.40;;;;;;;18.86;71.72;101400.16;5051727;28;20080;-72
2023/05/06 12:07:17;;;;;;;4.10;1.20;;;;;;;18.89;69.96;101402.38;5052513;28;20043;-71
2023/05/06 12:09:46;;;;;;;2.83;1.25;;;;;;;18.88;68.14;101401.53;5039352;28;20037;-74
2023/05/06 12:12:15;;;;;;;8.15;1.35;;;;;;;18.85;64.39;101402.06;5030960;28;20049;-73
2023/05/06 12:14:41;;;;;;;1.98;1.15;;;;;;;18.86;65.74;101402.91;5030682;28;20403;-72
2023/05/06 12:17:07;;;;;;;3.22;1.42;;;;;;;18.97;66.90;101399.09;5032446;28;20039;-71
2023/05/06 12:19:32;;;;;;;6.78;1.52;;;;;;;19.03;65.94;101394.47;5050066;28;20100;-74
2023/05/06 12:22:23;;;;;;;3.53;1.17;;;;;;;19.15;68.39;101392.31;5052179;28;20029;-72
2023/05/06 12:24:49;;;;;;;5.00;1.40;;;;;;;19.35;66.33;101393.47;5036296;28;20026;-73
2023/05/06 12:27:30;;;;;;;4.93;1.70;;;;;;;19.32;64.98;101396.75;5032079;28;20041;-74
2023/05/06 12:29:56;;;;;;;5.97;1.33;;;;;;;19.29;63.00;101389.88;5031748;28;20543;-72
2023/05/06 12:32:21;;;;;;;3.92;1.45;;;;;;;19.29;68.37;101400.84;5050050;28;20040;-75
2023/05/06 12:34:47;;;;;;;3.88;1.38;;;;;;;19.25;64.05;101400.59;5049288;28;20100;-75
2023/05/06 12:37:30;;;;;;;3.95;1.50;;;;;;;19.29;66.00;101400.84;5049909;28;20029;-77
2023/05/06 12:39:56;;;;;;;3.75;1.40;;;;;;;19.36;65.57;101398.69;5051332;28;20025;-72
2023/05/06 12:42:22;;;;;;;3.47;1.50;;;;;;;19.54;66.94;101402.84;5050311;28;20132;-74
2023/05/06 12:44:50;;;;;;;1.98;0.93;;;;;;;19.52;65.41;101410.53;5050108;28;20047;-74
2023/05/06 12:47:25;;;;;;;3.38;1.65;;;;;;;19.65;68.71;101399.00;5051636;28;20111;-74
2023/05/06 12:49:56;;;;;;;3.80;1.05;;;;;;;19.72;61.89;101397.94;5043790;28;20061;-73
2023/05/06 12:52:24;;;;;;;5.60;1.50;;;;;;;19.73;60.73;101399.56;5051611;28;20074;-74
2023/05/06 12:54:51;;;;;;;5.85;1.33;;;;;;;19.89;64.93;101393.00;5047041;28;20036;-74
2023/05/06 12:57:17;;;;;;;5.38;1.20;;;;;;;19.83;58.11;101399.59;5040795;28;20082;-72
2023/05/06 12:59:44;;;;;;;2.67;1.23;;;;;;;19.93;60.15;101398.75;5055211;28;20033;-74
2023/05/06 13:02:10;;;;;;;3.83;1.15;;;;;;;19.94;59.17;101398.53;5052153;28;20040;-76
2023/05/06 13:04:35;;;;;;;3.38;1.55;;;;;;;19.95;63.37;101402.09;5054390;28;20037;-74
2023/05/06 13:07:06;;;;;;;3.20;1.17;;;;;;;19.90;59.28;101393.81;5049051;28;20468;-74
2023/05/06 13:09:35;;;;;;;2.40;1.10;;;;;;;19.88;60.42;101390.53;5035512;28;20065;-78
2023/05/06 13:12:01;;;;;;;4.13;1.33;;;;;;;19.93;59.83;101388.63;5034509;28;20049;-76
2023/05/06 13:14:27;;;;;;;2.63;1.42;;;;;;;19.87;59.03;101395.22;5037698;28;20053;-74
2023/05/06 13:16:52;;;;;;;3.58;1.25;;;;;;;19.87;58.88;101386.97;5041422;28;20017;-78
2023/05/06 13:19:18;;;;;;;4.00;1.38;;;;;;;19.87;56.15;101392.47;5055161;28;20032;-75
2023/05/06 13:21:44;;;;;;;2.83;1.25;;;;;;;19.84;55.18;101401.25;5054959;28;20124;-74
2023/05/06 13:24:10;;;;;;;2.95;1.30;;;;;;;19.77;55.37;101389.69;5047801;28;20485;-73
2023/05/06 13:26:35;;;;;;;3.88;1.77;;;;;;;19.75;55.19;101389.97;5048431;28;20036;-77
2023/05/06 13:29:02;;;;;;;3.75;1.42;;;;;;;19.82;56.02;101396.03;5056433;28;20032;-78
2023/05/06 13:31:28;;;;;;;3.88;1.67;;;;;;;19.91;57.44;101390.00;5057080;28;20029;-74
2023/05/06 13:33:56;;;;;;;2.40;1.10;;;;;;;19.95;56.06;101391.91;5057002;28;20483;-72
2023/05/06 13:36:23;;;;;;;3.88;1.40;;;;;;;20.01;54.93;101390.00;5055966;28;20033;-71
2023/05/06 13:38:48;;;;;;;1.63;1.10;;;;;;;20.05;53.65;101390.25;5053332;28;20041;-74
2023/05/06 13:41:13;;;;;;;2.28;1.10;;;;;;;20.08;54.80;101375.97;5037167;28;20041;-74
2023/05/06 13:43:39;;;;;;;2.70;1.30;;;;;;;20.09;54.69;101374.88;5035064;28;20380;-76
2023/05/06 13:46:04;;;;;;;2.05;1.20;;;;;;;;;;5032995;28;20021;-74
2023/05/06 13:48:29;;;;;;;3.50;1.60;;;;;;;20.24;59.00;101372.09;5033565;28;20029;-74
2023/05/06 13:50:55;;;;;;;2.75;1.42;;;;;;;20.24;54.80;101377.59;5051905;28;20166;-76
2023/05/06 13:53:21;;;;;;;7.00;1.48;;;;;;;20.22;55.73;101373.50;5054958;28;20029;-77
2023/05/06 13:55:46;;;;;;;2.60;1.30;;;;;;;20.17;55.14;101368.84;5037637;28;20029;-75
2023/05/06 13:58:11;;;;;;;4.20;1.30;;;;;;;20.14;55.19;101369.34;5034388;28;20040;-72
2023/05/06 14:00:37;;;;;;;4.43;1.25;;;;;;;20.14;58.49;101370.19;5032049;28;20029;-73
2023/05/06 14:03:03;;;;;;;4.25;1.50;;;;;;;20.09;58.37;101369.38;5034633;28;20036;-77
2023/05/06 14:05:28;;;;;;;4.53;1.52;;;;;;;20.07;60.02;101355.09;5033775;28;20053;-77
2023/05/06 14:07:53;;;;;;;3.67;1.33;;;;;;;20.10;57.83;101366.34;5033635;28;20033;-76
2023/05/06 14:10:19;;;;;;;2.92;1.20;;;;;;;20.10;56.47;101368.28;5054103;28;20063;-75
2023/05/06 14:12:46;;;;;;;2.63;1.05;;;;;;;20.13;55.93;101364.97;5054065;28;20071;-77
2023/05/06 14:15:13;;;;;;;7.53;1.73;;;;;;;20.13;56.62;101359.50;5054388;28;20543;-77
2023/05/06 14:17:39;;;;;;;5.00;1.33;;;;;;;20.17;59.17;101357.84;5030982;28;20033;-76
2023/05/06 14:20:05;;;;;;;4.53;1.23;;;;;;;20.19;57.38;101347.38;5048977;28;20040;-75
2023/05/06 14:22:31;;;;;;;6.50;1.42;;;;;;;20.21;55.01;101352.59;5054274;28;20056;-74
2023/05/06 14:24:57;;;;;;;3.55;1.30;;;;;;;20.22;57.43;101344.06;5044623;28;20440;-75
2023/05/06 14:27:22;;;;;;;3.63;1.20;;;;;;;20.21;56.73;101355.34;5038442;28;20030;-72
2023/05/06 14:29:47;;;;;;;2.97;1.27;;;;;;;20.23;56.98;101348.47;5033533;28;20033;-73
2023/05/06 14:32:13;;;;;;;3.22;1.25;;;;;;;20.19;54.49;101341.88;5034278;28;20041;-73
2023/05/06 14:34:38;;;;;;;5.53;1.55;;;;;;;20.18;55.43;101348.47;5041458;28;20086;-75
2023/05/06 14:37:04;;;;;;;3.05;1.38;;;;;;;20.20;55.15;101349.03;5053486;28;20032;-74
2023/05/06 14:39:29;;;;;;;4.18;1.15;;;;;;;20.14;56.44;101350.13;5043397;28;20103;-73
2023/05/06 14:41:55;;;;;;;9.70;6.00;;;;;;;20.17;57.23;101335.84;5032373;28;20124;-71
2023/05/06 14:44:21;;;;;;;4.63;1.65;;;;;;;20.12;55.02;101338.59;5032553;28;20044;-75
2023/05/06 14:46:46;;;;;;;3.42;1.55;;;;;;;20.04;53.28;101339.19;5033471;28;20037;-73
2023/05/06 14:49:11;;;;;;;3.28;1.30;;;;;;;19.97;54.31;101343.03;5033659;28;20092;-70
2023/05/06 14:51:37;;;;;;;3.28;1.38;;;;;;;19.98;54.29;101328.19;5032410;28;20025;-72
2023/05/06 14:54:02;;;;;;;4.57;1.48;;;;;;;19.97;56.81;101331.19;5032899;28;20040;-74
2023/05/06 14:56:27;;;;;;;2.58;1.15;;;;;;;19.91;53.95;101324.06;5041532;28;20111;-74
2023/05/06 14:58:53;;;;;;;2.55;1.00;;;;;;;19.89;55.25;101327.09;5050115;28;20082;-72
2023/05/06 15:01:18;;;;;;;4.28;1.63;;;;;;;19.80;54.13;101324.06;5050097;28;20021;-74
2023/05/06 15:03:44;;;;;;;1.80;1.20;;;;;;;19.78;54.06;101328.22;5047284;28;20535;-71
2023/05/06 15:06:10;;;;;;;2.80;1.50;;;;;;;19.78;54.82;101330.97;5042033;28;20131;-77
2023/05/06 15:08:36;;;;;;;4.78;1.20;;;;;;;19.73;54.20;101328.16;5050785;28;20030;-78
2023/05/06 15:11:04;;;;;;;2.88;1.10;;;;;;;19.68;58.08;101333.66;5049224;28;20040;-75
2023/05/06 15:13:32;;;;;;;4.53;1.60;;;;;;;19.68;55.39;101339.16;5047956;28;20029;-73
2023/05/06 15:15:58;;;;;;;4.80;1.30;;;;;;;19.58;55.43;101338.06;5053957;28;20127;-74
2023/05/06 15:18:23;;;;;;;4.78;1.40;;;;;;;19.59;56.32;101344.38;5052565;28;20060;-71
2023/05/06 15:20:53;;;;;;;7.07;1.67;;;;;;;19.50;58.44;101343.28;5053102;28;20056;-74
2023/05/06 15:23:19;;;;;;;4.95;1.50;;;;;;;19.28;62.46;101342.41;5043339;28;20056;-74
2023/05/06 15:25:45;;;;;;;4.63;1.40;;;;;;;19.02;65.97;101340.69;5038034;28;20029;-74
2023/05/06 15:28:10;;;;;;;2.85;1.52;;;;;;;18.77;72.28;101345.78;5035744;28;20052;-75
2023/05/06 15:30:36;;;;;;;3.53;1.65;;;;;;;18.54;80.66;101354.44;5037666;28;20484;-72
2023/05/06 15:33:02;;;;;;;4.63;1.42;;;;;;;18.32;78.60;101354.63;5036067;28;20160;-75
2023/05/06 15:35:27;;;;;;;3.42;1.45;;;;;;;18.13;77.66;101355.06;5037520;28;20458;-74
2023/05/06 15:37:57;;;;;;;2.45;1.23;;;;;;;18.04;70.16;101370.31;5037229;28;20033;-74
2023/05/06 15:40:24;;;;;;;4.03;1.40;;;;;;;17.99;80.44;101367.53;5039314;28;20021;-74
2023/05/06 15:42:50;;;;;;;2.47;1.30;;;;;;;17.88;86.60;101367.44;5039443;28;20037;-73
2023/05/06 15:45:17;;;;;;;7.13;2.63;;;;;;;17.81;90.82;101357.78;5039234;28;20393;-72
2023/05/06 15:47:42;;;;;;;11.77;6.35;;;;;;;17.80;89.74;101358.88;5038983;28;20449;-74
2023/05/06 15:50:08;;;;;;;7.07;3.60;;;;;;;17.81;96.18;101358.59;5037691;28;20448;-75
2023/05/06 15:52:33;;;;;;;4.63;2.88;;;;;;;17.81;100.00;101366.81;5039060;28;20030;-72
2023/05/06 15:55:13;;;;;;;3.17;1.70;;;;;;;17.76;100.00;101371.44;5055229;28;20028;-74
2023/05/06 15:57:48;;;;;;;6.47;2.97;;;;;;;17.65;100.00;101370.53;5039976;28;20044;-74
2023/05/06 16:00:20;;;;;;;4.57;3.00;;;;;;;17.56;100.00;101370.16;5033514;28;20037;-77
